KROC/ROC METAR and TAF weather

Enter ICAO airport designator
Station Type Date Time Source
KROC METAR 2019/10/22 16:05 UTC NOAA

KROC 221605Z 28005KT 1 1/2SM R04/5500VP6000FT BR BKN024 OVC030 15/14 A2981 RMK AO2 RAEMM P0005 T01500139 $


Station Type Date Time Source
KROC Decoded METAR 2019/10/22 16:05 UTC NOAA

GREATER ROCHESTER INTERNATIONAL , NY, United States (KROC) 43-07N 077-41W 178M
Oct 22, 2019 - 12:05 PM EDT / 2019.10.22 1605 UTC
Wind: from the W (280 degrees) at 6 MPH (5 KT):0
Visibility: 1 1/2 mile(s):0
Sky conditions: overcast
Weather: mist
Precipitation last hour: 0.05 inches
Temperature: 59.0 F (15.0 C)
Dew Point: 57.0 F (13.9 C)
Relative Humidity: 93%
Pressure (altimeter): 29.81 in. Hg (1009 hPa)
ob: KROC 221605Z 28005KT 1 1/2SM R04/5500VP6000FT BR BKN024 OVC030 15/14 A2981 RMK AO2 RAEMM P0005 T01500139
cycle: 16

Station Type Date Time Source
KROC TAF 2019/10/22 15:15 UTC NOAA

TAF
AMD KROC 221511Z 2215/2312 20013G20KT 6SM -SHRA BR OVC040 WS015/19040KT
FM221600 17011G17KT 4SM RA OVC020
FM221900 18008KT 5SM -RA OVC050
FM222100 19009KT P6SM VCSH OVC070
FM230000 22007KT P6SM VCSH BKN035

Example: see airport list